Time;durP1;ratioP1;P1;durP2;ratioP2;P2;SDS_P1;SDS_P2;PMS_P1;PMS_P2;Temp;Humidity;BMP_temperature;BMP_pressure;BME280_temperature;BME280_humidity;BME280_pressure;Samples;Min_cycle;Max_cycle;Signal;HPM_P1;HPM_P2
2022/10/29 00:00:15;;;;;;;41.20;22.67;;;;;;;9.62;89.98;95833.75;5031479;28;20690;-79
2022/10/29 00:02:43;;;;;;;43.83;23.37;;;;;;;9.57;90.72;95823.94;5032112;28;20570;-77
2022/10/29 00:05:10;;;;;;;48.60;25.10;;;;;;;9.55;90.79;95823.28;5031047;28;20210;-77
2022/10/29 00:07:37;;;;;;;51.60;26.67;;;;;;;9.41;91.74;95818.94;5031258;28;20665;-77
2022/10/29 00:10:04;;;;;;;48.57;25.67;;;;;;;9.35;92.20;95817.06;5031768;28;20199;-77
2022/10/29 00:12:31;;;;;;;48.00;24.70;;;;;;;9.39;91.47;95822.72;5028472;28;20191;-77
2022/10/29 00:14:58;;;;;;;48.13;23.40;;;;;;;9.45;92.18;95814.19;5031414;28;20195;-76
2022/10/29 00:17:24;;;;;;;46.63;22.57;;;;;;;9.49;92.11;95813.66;5031260;28;20209;-77
2022/10/29 00:19:53;;;;;;;44.43;21.50;;;;;;;9.49;90.64;95810.28;5031507;28;20273;-77
2022/10/29 00:22:19;;;;;;;41.93;22.27;;;;;;;9.37;91.41;95801.34;5031062;28;20234;-77
2022/10/29 00:24:47;;;;;;;39.27;21.47;;;;;;;9.42;91.47;95804.19;5031168;28;20680;-77
2022/10/29 00:27:13;;;;;;;35.20;20.20;;;;;;;9.46;91.41;95813.22;5031380;28;20191;-77
2022/10/29 00:29:40;;;;;;;33.77;18.60;;;;;;;9.42;90.70;95817.16;5031403;28;20202;-76
2022/10/29 00:32:08;;;;;;;35.43;19.40;;;;;;;9.31;91.18;95796.88;5031096;28;20194;-76
2022/10/29 00:34:35;;;;;;;31.60;18.03;;;;;;;9.43;91.00;95808.41;5031311;28;20202;-76
2022/10/29 00:37:04;;;;;;;32.57;18.27;;;;;;;9.40;91.46;95806.16;5031253;28;20191;-77
2022/10/29 00:39:32;;;;;;;31.40;17.03;;;;;;;9.35;91.72;95803.31;5029085;28;20206;-78
2022/10/29 00:41:59;;;;;;;32.03;16.90;;;;;;;9.34;91.26;95802.50;5028311;28;20276;-78
2022/10/29 00:44:29;;;;;;;33.93;17.50;;;;;;;9.25;92.30;95800.19;5031100;28;20233;-77
2022/10/29 00:47:02;;;;;;;31.03;17.23;;;;;;;9.22;92.63;95798.78;5030855;28;20661;-78
2022/10/29 00:49:29;;;;;;;30.80;15.57;;;;;;;9.18;92.22;95799.31;5031313;28;20198;-78
2022/10/29 00:51:57;;;;;;;27.37;15.07;;;;;;;9.09;92.95;95802.00;5030897;28;20202;-78
2022/10/29 00:54:27;;;;;;;27.00;15.30;;;;;;;9.07;92.62;95791.00;5030904;28;20195;-77
2022/10/29 00:57:00;;;;;;;27.03;14.93;;;;;;;9.08;92.51;95797.81;5031376;28;20194;-76
2022/10/29 00:59:27;;;;;;;22.93;13.80;;;;;;;9.07;93.46;95791.00;5030543;28;20657;-77
2022/10/29 01:01:55;;;;;;;28.80;15.47;;;;;;;9.09;92.20;95796.03;5030577;28;20206;-77
2022/10/29 01:04:24;;;;;;;27.03;14.97;;;;;;;9.07;92.94;95791.00;5030733;28;20222;-78
2022/10/29 01:06:52;;;;;;;25.03;14.13;;;;;;;8.94;92.76;95790.84;5028157;28;20194;-77
2022/10/29 01:09:19;;;;;;;29.23;14.23;;;;;;;8.82;93.34;95776.72;5031053;28;20190;-77
2022/10/29 01:12:05;;;;;;;25.23;13.47;;;;;;;8.74;95.43;95779.41;5027608;28;20654;-78
2022/10/29 01:14:43;;;;;;;22.13;12.00;;;;;;;8.55;96.94;95780.72;5028778;28;20191;-77
2022/10/29 01:17:20;;;;;;;20.80;11.33;;;;;;;8.62;97.36;95777.41;5030931;28;20187;-77
2022/10/29 01:20:32;;;;;;;21.83;13.27;;;;;;;8.66;96.56;95766.50;5030877;28;20198;-78
2022/10/29 01:23:11;;;;;;;23.33;13.67;;;;;;;8.66;96.02;95773.50;5026605;28;20207;-78
2022/10/29 01:25:59;;;;;;;25.93;13.90;;;;;;;8.68;94.84;95769.75;5031033;28;20274;-77
2022/10/29 01:28:41;;;;;;;24.10;13.73;;;;;;;8.69;94.97;95765.34;5031182;28;20230;-78
2022/10/29 01:31:29;;;;;;;23.80;13.17;;;;;;;8.74;94.17;95766.44;5031338;28;20191;-78
2022/10/29 01:34:04;;;;;;;27.37;13.93;;;;;;;8.72;94.18;95770.16;5030706;28;20222;-79
2022/10/29 01:36:38;;;;;;;23.20;11.97;;;;;;;8.73;94.42;95770.00;5032690;28;20195;-77
2022/10/29 01:39:09;;;;;;;19.37;12.13;;;;;;;8.75;95.16;95769.81;5035525;28;20618;-78
2022/10/29 01:41:43;;;;;;;19.77;12.07;;;;;;;8.75;94.59;95764.63;5034428;28;20195;-77
2022/10/29 01:44:24;;;;;;;21.47;12.30;;;;;;;8.74;94.65;95763.03;5031486;28;20233;-77
2022/10/29 01:46:55;;;;;;;22.43;13.00;;;;;;;8.73;95.20;95762.22;5031705;28;20218;-77
2022/10/29 01:49:28;;;;;;;23.37;12.57;;;;;;;8.69;95.09;95760.16;5034740;28;20187;-77
2022/10/29 01:52:00;;;;;;;20.43;13.47;;;;;;;8.70;95.20;95754.00;5015520;28;20187;-77
2022/10/29 01:54:27;;;;;;;24.40;14.97;;;;;;;8.69;94.33;95749.78;5031482;28;20191;-77
2022/10/29 01:56:55;;;;;;;23.13;15.30;;;;;;;8.72;94.45;95760.63;5034436;28;20206;-77
2022/10/29 01:59:24;;;;;;;32.57;20.40;;;;;;;8.62;94.14;95752.31;5034808;28;20210;-77
2022/10/29 02:02:06;;;;;;;36.60;20.60;;;;;;;8.62;94.27;95748.91;5031618;28;20198;-76
2022/10/29 02:04:54;;;;;;;35.43;21.70;;;;;;;8.68;93.99;95750.81;5031590;28;20214;-76
2022/10/29 02:07:35;;;;;;;36.40;22.43;;;;;;;8.60;94.56;95750.91;5031449;28;20191;-78
2022/10/29 02:10:09;;;;;;;33.70;23.07;;;;;;;8.46;95.63;95749.88;5035201;28;20645;-78
2022/10/29 02:12:41;;;;;;;34.87;20.73;;;;;;;8.48;96.08;95760.88;5029526;28;20205;-78
2022/10/29 02:15:13;;;;;;;35.57;22.07;;;;;;;8.42;96.28;95746.88;5035031;28;20191;-77
2022/10/29 02:17:41;;;;;;;43.13;25.17;;;;;;;8.49;95.53;95746.94;5034447;28;20243;-77
2022/10/29 02:20:10;;;;;;;44.53;26.57;;;;;;;8.38;95.00;95731.84;5034021;28;20589;-78
2022/10/29 02:22:37;;;;;;;41.97;25.90;;;;;;;8.46;94.89;95747.28;5033614;28;20681;-78
2022/10/29 02:25:06;;;;;;;38.27;24.57;;;;;;;8.45;95.68;95748.28;5033335;28;20195;-78
2022/10/29 02:27:33;;;;;;;39.83;25.70;;;;;;;8.44;95.29;95751.84;5033834;28;20190;-78
2022/10/29 02:30:00;;;;;;;43.30;26.10;;;;;;;8.41;94.83;95742.66;5033477;28;20243;-77
2022/10/29 02:32:27;;;;;;;39.00;26.23;;;;;;;8.31;95.38;95730.94;5033309;28;20191;-76
2022/10/29 02:34:55;;;;;;;46.77;26.23;;;;;;;8.34;95.92;95746.13;5033474;28;20183;-77
2022/10/29 02:37:22;;;;;;;36.83;24.83;;;;;;;8.34;95.58;95740.97;5033433;28;20191;-77
2022/10/29 02:39:49;;;;;;;38.90;22.07;;;;;;;8.34;95.71;95740.97;5033149;28;20198;-77
2022/10/29 02:42:16;;;;;;;31.90;20.23;;;;;;;8.26;96.08;95728.84;5030620;28;20195;-77
2022/10/29 02:44:43;;;;;;;30.93;19.73;;;;;;;8.31;96.23;95742.09;5033392;28;20233;-77
2022/10/29 02:47:09;;;;;;;25.27;16.67;;;;;;;8.33;95.83;95742.75;5031684;28;20195;-77
2022/10/29 02:49:36;;;;;;;23.80;14.67;;;;;;;8.29;95.83;95728.53;5033639;28;20218;-78
2022/10/29 02:52:05;;;;;;;19.93;12.40;;;;;;;8.34;96.07;95738.38;5033566;28;20200;-78
2022/10/29 02:54:31;;;;;;;20.53;10.77;;;;;;;8.26;96.58;95734.03;5026127;28;20195;-78
2022/10/29 02:56:58;;;;;;;21.27;12.27;;;;;;;8.27;96.13;95735.69;5033178;28;20210;-77
2022/10/29 02:59:25;;;;;;;23.40;14.13;;;;;;;8.20;95.99;95721.78;5033069;28;20649;-78
2022/10/29 03:01:52;;;;;;;22.80;11.80;;;;;;;8.26;96.56;95735.81;5032823;28;20194;-79
2022/10/29 03:04:19;;;;;;;17.30;9.93;;;;;;;8.20;96.58;95736.50;5033119;28;20280;-78
2022/10/29 03:06:45;;;;;;;19.97;12.60;;;;;;;8.11;96.74;95735.00;5033151;28;20199;-77
2022/10/29 03:09:13;;;;;;;18.47;11.87;;;;;;;8.15;97.06;95734.47;5032608;28;20629;-77
2022/10/29 03:11:40;;;;;;;47.00;25.03;;;;;;;8.14;96.62;95740.59;5030092;28;20199;-77
2022/10/29 03:14:07;;;;;;;26.67;16.13;;;;;;;8.05;97.31;95733.91;5032792;28;20190;-77
2022/10/29 03:16:34;;;;;;;21.27;13.10;;;;;;;8.07;96.27;95738.91;5032888;28;20195;-78
2022/10/29 03:19:01;;;;;;;24.37;13.37;;;;;;;8.08;96.35;95735.34;5032559;28;20199;-76
2022/10/29 03:21:27;;;;;;;22.20;13.50;;;;;;;8.10;95.69;95730.78;5032595;28;20195;-78
2022/10/29 03:23:54;;;;;;;19.73;12.70;;;;;;;7.97;96.16;95721.84;5032627;28;20210;-78
2022/10/29 03:26:22;;;;;;;24.67;13.57;;;;;;;7.93;97.21;95732.72;5032702;28;20622;-79
2022/10/29 03:28:49;;;;;;;23.90;12.57;;;;;;;7.87;98.25;95729.06;5032237;28;20683;-78
2022/10/29 03:31:16;;;;;;;23.80;13.60;;;;;;;7.93;98.48;95728.34;5032154;28;20277;-78
2022/10/29 03:33:43;;;;;;;22.80;14.00;;;;;;;7.94;98.01;95729.94;5031984;28;20587;-77
2022/10/29 03:36:10;;;;;;;25.90;15.03;;;;;;;7.99;96.89;95724.25;5031743;28;20206;-78
2022/10/29 03:38:36;;;;;;;26.57;14.57;;;;;;;7.99;96.37;95708.72;5031948;28;20199;-77
2022/10/29 03:41:09;;;;;;;26.67;14.90;;;;;;;7.97;96.84;95721.84;5032090;28;20753;-76
2022/10/29 03:43:37;;;;;;;24.37;15.43;;;;;;;7.89;97.37;95724.50;5018818;28;20285;-76
2022/10/29 03:46:04;;;;;;;26.40;15.10;;;;;;;7.81;97.22;95716.00;5031501;28;20194;-77
2022/10/29 03:48:31;;;;;;;29.07;16.70;;;;;;;7.85;96.94;95717.28;5029416;28;20549;-79
2022/10/29 03:51:00;;;;;;;31.17;16.10;;;;;;;7.84;97.22;95719.03;5031708;28;20199;-78
2022/10/29 03:53:28;;;;;;;49.67;23.57;;;;;;;7.75;97.05;95720.09;5031270;28;20194;-77
2022/10/29 03:55:56;;;;;;;39.73;22.43;;;;;;;7.70;97.05;95722.41;5031609;28;20206;-78
2022/10/29 03:58:24;;;;;;;47.30;24.67;;;;;;;7.69;96.97;95715.59;5031321;28;20202;-78
2022/10/29 04:00:59;;;;;;;61.23;31.20;;;;;;;7.62;97.53;95722.44;5029239;28;20199;-78
2022/10/29 04:03:27;;;;;;;50.60;27.37;;;;;;;7.59;97.03;95714.25;5032117;28;20217;-77
2022/10/29 04:05:55;;;;;;;51.50;30.23;;;;;;;7.66;97.13;95726.31;5031599;28;20219;-77
2022/10/29 04:08:22;;;;;;;50.87;31.83;;;;;;;7.74;96.11;95717.66;5031525;28;20577;-76
2022/10/29 04:10:50;;;;;;;55.40;32.77;;;;;;;7.75;95.83;95714.91;5031618;28;20186;-77
2022/10/29 04:13:18;;;;;;;61.13;29.97;;;;;;;7.73;95.59;95716.88;5031530;28;20195;-78
2022/10/29 04:15:45;;;;;;;49.00;29.07;;;;;;;7.62;96.20;95719.84;5032047;28;20195;-79
2022/10/29 04:18:14;;;;;;;53.77;27.80;;;;;;;7.67;96.17;95714.16;5029356;28;20545;-78
2022/10/29 04:20:41;;;;;;;45.27;25.60;;;;;;;7.64;95.74;95723.09;5031875;28;20190;-77
2022/10/29 04:23:08;;;;;;;38.57;22.80;;;;;;;7.53;96.79;95722.69;5034633;28;20198;-76
2022/10/29 04:25:34;;;;;;;43.10;23.43;;;;;;;7.60;97.11;95729.56;5031501;28;20195;-76
2022/10/29 04:28:01;;;;;;;38.60;21.80;;;;;;;7.58;96.63;95736.72;5031859;28;20194;-79
2022/10/29 04:30:28;;;;;;;43.33;21.67;;;;;;;7.50;96.72;95735.97;5031971;28;20195;-78
2022/10/29 04:32:59;;;;;;;38.70;21.63;;;;;;;7.43;96.53;95728.06;5038195;28;20205;-78
2022/10/29 04:35:29;;;;;;;41.40;20.93;;;;;;;7.52;96.13;95741.75;5039587;28;20194;-78
2022/10/29 04:37:55;;;;;;;39.87;21.97;;;;;;;7.42;96.12;95727.25;5041050;28;20271;-78
2022/10/29 04:40:23;;;;;;;23.57;13.30;;;;;;;7.51;96.76;95740.13;5039248;28;20309;-78
2022/10/29 04:42:50;;;;;;;23.87;11.83;;;;;;;7.53;98.32;95739.00;5037667;28;20570;-78
2022/10/29 04:45:18;;;;;;;32.63;18.13;;;;;;;7.44;97.83;95742.63;5031860;28;20210;-79
2022/10/29 04:47:45;;;;;;;35.23;19.00;;;;;;;7.41;97.24;95748.16;5031947;28;20662;-78
2022/10/29 04:50:12;;;;;;;37.93;19.57;;;;;;;7.37;97.11;95752.84;5016148;28;20203;-79
2022/10/29 04:52:40;;;;;;;36.23;18.70;;;;;;;7.36;96.93;95738.28;5024935;28;20257;-77
2022/10/29 04:55:08;;;;;;;34.53;18.53;;;;;;;7.35;96.59;95738.47;5031920;28;20202;-78
2022/10/29 04:57:34;;;;;;;34.97;19.17;;;;;;;7.38;96.46;95740.72;5031786;28;20682;-78
2022/10/29 05:00:01;;;;;;;38.47;18.77;;;;;;;7.38;96.58;95736.38;5032742;28;20680;-78
2022/10/29 05:02:28;;;;;;;36.90;18.33;;;;;;;7.38;96.37;95730.38;5031351;28;20688;-78
2022/10/29 05:04:55;;;;;;;34.50;18.50;;;;;;;7.38;96.69;95733.78;5031697;28;20215;-77
2022/10/29 05:07:22;;;;;;;31.40;18.23;;;;;;;7.39;96.98;95730.19;5031096;28;20191;-79
2022/10/29 05:09:50;;;;;;;30.97;16.07;;;;;;;7.37;96.95;95733.94;5031354;28;20199;-78
2022/10/29 05:12:17;;;;;;;38.13;18.70;;;;;;;7.42;97.01;95741.97;5034084;28;20685;-78
2022/10/29 05:14:43;;;;;;;33.67;18.47;;;;;;;7.43;96.79;95746.19;5034877;28;20198;-78
2022/10/29 05:17:10;;;;;;;36.73;19.57;;;;;;;7.42;96.93;95737.63;5034583;28;20617;-78
2022/10/29 05:19:37;;;;;;;36.90;19.50;;;;;;;7.47;96.73;95741.47;5034998;28;20203;-78
2022/10/29 05:22:04;;;;;;;34.43;19.93;;;;;;;7.37;96.78;95739.09;5035055;28;20202;-78
2022/10/29 05:24:30;;;;;;;37.90;19.23;;;;;;;7.38;96.81;95743.31;5034771;28;20716;-78
2022/10/29 05:26:59;;;;;;;34.20;19.40;;;;;;;7.41;97.14;95735.22;5034880;28;20207;-77
2022/10/29 05:29:25;;;;;;;41.37;18.83;;;;;;;7.46;97.21;95735.50;5034670;28;20211;-77
2022/10/29 05:31:53;;;;;;;36.10;20.20;;;;;;;7.46;97.45;95739.84;5034436;28;20579;-77
2022/10/29 05:34:20;;;;;;;62.87;29.63;;;;;;;7.40;97.70;95744.75;5034478;28;20290;-78
2022/10/29 05:36:47;;;;;;;44.80;25.10;;;;;;;7.44;97.95;95748.56;5034282;28;20729;-77
2022/10/29 05:39:14;;;;;;;38.93;22.73;;;;;;;7.52;97.62;95758.09;5034274;28;20256;-78
2022/10/29 05:41:41;;;;;;;38.80;20.77;;;;;;;7.58;97.87;95751.41;5034230;28;20589;-77
2022/10/29 05:44:09;;;;;;;38.60;20.23;;;;;;;7.61;97.65;95751.88;5033970;28;20227;-77
2022/10/29 05:46:36;;;;;;;29.53;18.10;;;;;;;7.65;97.32;95760.09;5034256;28;20203;-76
2022/10/29 05:49:03;;;;;;;35.90;18.50;;;;;;;7.67;97.78;95750.41;5033825;28;20195;-77
2022/10/29 05:51:30;;;;;;;31.07;17.30;;;;;;;7.72;97.46;95759.25;5034115;28;20198;-77
2022/10/29 05:53:57;;;;;;;33.53;17.67;;;;;;;7.75;97.57;95756.31;5034409;28;20191;-78
2022/10/29 05:56:24;;;;;;;32.47;18.00;;;;;;;7.77;97.48;95756.94;5034857;28;20199;-78
2022/10/29 05:58:52;;;;;;;45.60;20.43;;;;;;;7.77;97.53;95753.53;5034310;28;20208;-78
2022/10/29 06:01:20;;;;;;;35.93;19.20;;;;;;;7.85;97.89;95766.44;5034691;28;20194;-78
2022/10/29 06:03:47;;;;;;;34.93;17.23;;;;;;;7.88;97.79;95768.66;5034056;28;20191;-78
2022/10/29 06:06:14;;;;;;;33.40;16.87;;;;;;;7.87;97.97;95769.66;5034225;28;20239;-78
2022/10/29 06:08:40;;;;;;;31.50;15.43;;;;;;;7.92;97.60;95765.56;5034175;28;20576;-78
2022/10/29 06:11:07;;;;;;;34.90;16.10;;;;;;;7.98;97.32;95764.06;5034049;28;20194;-79
2022/10/29 06:13:34;;;;;;;33.00;14.60;;;;;;;7.96;98.10;95771.19;5033679;28;20203;-78
2022/10/29 06:16:01;;;;;;;27.13;15.20;;;;;;;8.02;98.10;95769.69;5033626;28;20198;-78
2022/10/29 06:18:29;;;;;;;28.33;14.73;;;;;;;8.06;97.84;95770.94;5034229;28;20205;-78
2022/10/29 06:20:59;;;;;;;27.53;15.77;;;;;;;8.01;97.81;95753.34;5034222;28;20187;-78
2022/10/29 06:23:26;;;;;;;27.40;15.17;;;;;;;8.20;97.16;95775.34;5033629;28;20195;-78
2022/10/29 06:25:53;;;;;;;28.63;15.30;;;;;;;8.24;97.68;95774.03;5034244;28;20218;-78
2022/10/29 06:28:20;;;;;;;28.07;14.03;;;;;;;8.31;98.14;95777.56;5034412;28;20191;-79
2022/10/29 06:30:48;;;;;;;26.30;14.37;;;;;;;8.26;98.56;95772.06;5033928;28;20199;-78
2022/10/29 06:33:16;;;;;;;26.63;14.13;;;;;;;8.33;98.99;95762.66;5033784;28;20198;-79
2022/10/29 06:35:45;;;;;;;24.77;13.37;;;;;;;8.35;98.65;95771.84;5034295;28;20191;-79
2022/10/29 06:38:12;;;;;;;31.93;14.13;;;;;;;8.40;98.94;95764.34;5031420;28;20194;-79
2022/10/29 06:40:39;;;;;;;27.50;14.50;;;;;;;8.45;98.88;95764.66;5033779;28;20210;-79
2022/10/29 06:43:08;;;;;;;31.70;14.47;;;;;;;8.58;98.72;95766.59;5033855;28;20288;-78
2022/10/29 06:45:35;;;;;;;28.87;14.03;;;;;;;8.64;98.36;95776.25;5033747;28;20689;-77
2022/10/29 06:48:03;;;;;;;38.27;14.90;;;;;;;8.66;99.06;95771.69;5033879;28;20199;-78
2022/10/29 06:50:31;;;;;;;30.90;14.97;;;;;;;8.77;98.17;95773.88;5033932;28;20287;-78
2022/10/29 06:53:00;;;;;;;32.07;15.40;;;;;;;8.88;97.57;95776.00;5034326;28;20195;-79
2022/10/29 06:55:28;;;;;;;32.30;15.70;;;;;;;8.98;96.98;95775.72;5033772;28;20191;-79
2022/10/29 06:57:59;;;;;;;26.00;15.80;;;;;;;8.97;96.60;95767.16;5033715;28;20553;-77
2022/10/29 07:00:27;;;;;;;27.93;15.83;;;;;;;9.02;96.91;95771.78;5034630;28;20199;-79
2022/10/29 07:02:54;;;;;;;33.10;16.03;;;;;;;9.07;96.31;95770.25;5033098;28;20663;-79
2022/10/29 07:05:21;;;;;;;28.07;15.40;;;;;;;9.16;94.98;95776.16;5033153;28;20709;-78
2022/10/29 07:07:48;;;;;;;36.53;15.33;;;;;;;9.21;95.72;95785.97;5033523;28;20202;-78
2022/10/29 07:10:16;;;;;;;26.33;13.20;;;;;;;9.27;95.63;95782.66;5033344;28;20191;-79
2022/10/29 07:12:44;;;;;;;24.47;13.23;;;;;;;9.29;94.86;95789.28;5033507;28;20214;-78
2022/10/29 07:15:12;;;;;;;21.87;12.80;;;;;;;9.32;95.39;95788.13;5033380;28;20187;-78
2022/10/29 07:17:39;;;;;;;29.37;13.70;;;;;;;9.40;94.81;95785.41;5033281;28;20198;-78
2022/10/29 07:20:07;;;;;;;28.60;12.33;;;;;;;9.43;94.34;95791.03;5033043;28;20191;-78
2022/10/29 07:22:34;;;;;;;22.97;12.77;;;;;;;9.47;94.41;95794.88;5032766;28;20226;-79
2022/10/29 07:25:01;;;;;;;23.07;12.60;;;;;;;9.52;93.88;95789.16;5032542;28;20542;-78
2022/10/29 07:27:29;;;;;;;24.70;13.40;;;;;;;9.55;93.62;95786.19;5032857;28;20249;-79
2022/10/29 07:29:56;;;;;;;32.30;12.87;;;;;;;9.63;92.59;95791.25;5032741;28;20574;-78
2022/10/29 07:32:23;;;;;;;21.97;13.50;;;;;;;9.60;93.04;95786.44;5032880;28;20195;-79
2022/10/29 07:34:50;;;;;;;27.37;13.10;;;;;;;9.59;92.62;95790.81;5032123;28;20669;-80
2022/10/29 07:37:17;;;;;;;25.30;12.80;;;;;;;9.68;92.64;95792.31;5032452;28;20219;-77
2022/10/29 07:39:44;;;;;;;29.17;13.03;;;;;;;9.74;92.82;95784.78;5032462;28;20680;-78
2022/10/29 07:42:10;;;;;;;32.07;13.10;;;;;;;9.72;92.27;95781.56;5032134;28;20665;-76
2022/10/29 07:44:39;;;;;;;20.30;12.80;;;;;;;9.75;91.76;95783.78;5032163;28;20222;-77
2022/10/29 07:47:05;;;;;;;20.27;13.17;;;;;;;9.81;93.31;95783.88;5032038;28;20195;-78
2022/10/29 07:49:32;;;;;;;22.50;13.37;;;;;;;9.88;93.02;95782.13;5032111;28;20202;-78
2022/10/29 07:51:59;;;;;;;65.40;27.53;;;;;;;9.98;92.32;95787.81;5032244;28;20203;-79
2022/10/29 07:54:26;;;;;;;36.20;18.23;;;;;;;10.05;91.63;95788.66;5031704;28;20191;-77
2022/10/29 07:56:53;;;;;;;29.33;14.77;;;;;;;10.16;91.17;95783.00;5031744;28;20579;-79
2022/10/29 07:59:20;;;;;;;25.40;13.83;;;;;;;10.20;90.93;95776.44;5032221;28;20249;-78
2022/10/29 08:01:48;;;;;;;25.13;13.50;;;;;;;10.25;90.92;95779.28;5032166;28;20199;-78
2022/10/29 08:04:14;;;;;;;22.23;13.57;;;;;;;10.25;91.09;95774.09;5032306;28;20194;-80
2022/10/29 08:06:41;;;;;;;30.33;13.80;;;;;;;10.28;90.34;95775.50;5031852;28;20191;-78
2022/10/29 08:09:08;;;;;;;27.63;13.70;;;;;;;10.41;89.74;95780.00;5031673;28;20191;-78
2022/10/29 08:11:35;;;;;;;27.13;14.07;;;;;;;10.47;89.61;95759.28;5031928;28;20257;-78
2022/10/29 08:14:02;;;;;;;27.47;14.27;;;;;;;10.56;89.64;95763.31;5031912;28;20579;-77
2022/10/29 08:16:28;;;;;;;29.27;13.80;;;;;;;10.63;88.74;95758.97;5031738;28;20187;-77
2022/10/29 08:18:57;;;;;;;21.57;14.50;;;;;;;10.82;87.96;95760.88;5032057;28;20209;-77
2022/10/29 08:21:24;;;;;;;30.90;15.17;;;;;;;10.90;87.58;95759.94;5032114;28;20627;-77
2022/10/29 08:23:50;;;;;;;27.50;14.90;;;;;;;10.98;87.89;95756.34;5031445;28;20195;-78
2022/10/29 08:26:19;;;;;;;31.93;14.70;;;;;;;11.12;86.82;95760.63;5031090;28;20211;-78
2022/10/29 08:28:46;;;;;;;29.63;14.03;;;;;;;11.17;86.52;95761.63;5031368;28;20198;-78
2022/10/29 08:31:12;;;;;;;33.47;14.93;;;;;;;11.27;86.26;95759.50;5025820;28;20285;-78
2022/10/29 08:33:39;;;;;;;26.90;15.10;;;;;;;11.39;85.74;95760.53;5031087;28;20604;-78
2022/10/29 08:36:08;;;;;;;28.43;14.43;;;;;;;11.50;85.72;95758.34;5031809;28;20190;-78
2022/10/29 08:38:35;;;;;;;27.40;15.33;;;;;;;11.62;84.79;95757.59;5029300;28;20572;-78
2022/10/29 08:41:31;;;;;;;25.20;14.60;;;;;;;11.81;83.72;95750.84;5031739;28;20786;-77
2022/10/29 08:44:45;;;;;;;27.27;15.07;;;;;;;11.92;83.10;95751.06;5023009;28;20230;-77
2022/10/29 08:47:17;;;;;;;30.77;15.50;;;;;;;11.98;82.06;95728.63;4977688;28;20259;-77
2022/10/29 08:49:48;;;;;;;26.37;15.80;;;;;;;12.21;82.32;95742.06;4983118;28;20585;-77
2022/10/29 08:52:21;;;;;;;26.40;15.70;;;;;;;12.56;80.92;95741.81;5014571;28;20194;-77
2022/10/29 08:54:55;;;;;;;35.80;16.13;;;;;;;12.99;79.34;95738.50;5035506;28;20240;-76
2022/10/29 08:57:24;;;;;;;30.03;15.80;;;;;;;13.65;76.94;95730.41;5035428;28;20202;-76
2022/10/29 09:00:02;;;;;;;25.60;15.87;;;;;;;14.42;73.86;95743.16;5035115;28;20203;-77
2022/10/29 09:02:30;;;;;;;30.23;15.93;;;;;;;15.16;70.69;95742.22;5035159;28;20198;-76
2022/10/29 09:04:57;;;;;;;25.27;14.90;;;;;;;15.65;67.28;95744.66;5035157;28;20301;-77
2022/10/29 09:07:47;;;;;;;27.97;14.07;;;;;;;16.40;64.68;95747.56;5035112;28;20202;-77
2022/10/29 09:10:25;;;;;;;20.37;12.23;;;;;;;17.11;60.69;95731.59;5032690;28;20580;-76
2022/10/29 09:13:09;;;;;;;15.83;10.40;;;;;;;17.78;58.01;95745.81;5032171;28;20202;-77
2022/10/29 09:15:51;;;;;;;18.40;10.50;;;;;;;18.45;55.55;95737.97;5029723;28;20206;-76
2022/10/29 09:18:30;;;;;;;21.27;10.53;;;;;;;19.21;53.10;95737.25;5034327;28;20193;-77
2022/10/29 09:21:06;;;;;;;18.50;10.10;;;;;;;19.76;52.07;95742.41;5032533;28;20187;-78
2022/10/29 09:23:57;;;;;;;14.93;10.10;;;;;;;20.40;49.02;95740.66;5029549;28;20673;-78
2022/10/29 09:26:29;;;;;;;17.98;10.30;;;;;;;20.94;46.94;95728.88;5033828;28;20199;-78
2022/10/29 09:29:10;;;;;;;16.20;9.20;;;;;;;21.20;45.54;95732.47;5034711;28;20194;-78
2022/10/29 09:31:42;;;;;;;16.20;8.93;;;;;;;21.39;45.19;95730.97;5032895;28;20186;-76
2022/10/29 09:34:16;;;;;;;18.13;9.65;;;;;;;22.01;44.03;95740.72;5034361;28;20253;-77
2022/10/29 09:36:44;;;;;;;17.67;9.65;;;;;;;22.35;43.39;95735.69;5034897;28;20195;-77
2022/10/29 09:39:16;;;;;;;15.32;8.45;;;;;;;23.01;41.33;95733.81;5034665;28;20222;-76
2022/10/29 09:41:45;;;;;;;18.73;8.80;;;;;;;23.69;39.46;95737.59;5031577;28;20199;-77
2022/10/29 09:44:19;;;;;;;13.85;8.85;;;;;;;23.95;39.19;95731.06;5034043;28;20579;-77
2022/10/29 09:46:57;;;;;;;13.85;8.63;;;;;;;24.23;38.74;95721.59;5033976;28;20214;-77
2022/10/29 09:49:41;;;;;;;14.82;8.05;;;;;;;25.16;36.61;95727.44;5025477;28;20182;-77
2022/10/29 09:52:15;;;;;;;14.32;8.35;;;;;;;25.52;35.99;95730.50;5034040;28;20191;-78
2022/10/29 09:54:43;;;;;;;11.05;7.18;;;;;;;26.14;35.20;95728.59;5034840;28;20190;-77
2022/10/29 09:57:19;;;;;;;17.05;6.70;;;;;;;26.44;33.87;95720.94;5033833;28;20187;-76
2022/10/29 09:59:51;;;;;;;14.20;7.55;;;;;;;26.90;33.83;95718.31;5034439;28;20209;-76
2022/10/29 10:02:28;;;;;;;13.25;6.85;;;;;;;26.98;33.14;95714.19;5029473;28;20191;-76
2022/10/29 10:05:00;;;;;;;9.18;6.60;;;;;;;27.32;32.47;95703.94;5031466;28;20205;-76
2022/10/29 10:07:28;;;;;;;12.30;6.40;;;;;;;27.65;32.13;95711.84;5033796;28;20427;-76
2022/10/29 10:09:58;;;;;;;9.82;5.90;;;;;;;28.03;30.78;95710.44;5031453;28;20190;-75
2022/10/29 10:12:27;;;;;;;13.60;6.63;;;;;;;28.10;30.33;95703.63;5034015;28;20249;-75
2022/10/29 10:15:06;;;;;;;12.23;6.15;;;;;;;28.27;30.63;95707.53;5031319;28;20662;-76
2022/10/29 10:17:58;;;;;;;10.18;5.63;;;;;;;28.57;30.71;95698.78;5033468;28;20658;-76
2022/10/29 10:20:41;;;;;;;8.68;5.93;;;;;;;28.95;30.36;95685.75;5030238;28;20226;-75
2022/10/29 10:23:25;;;;;;;9.25;4.90;;;;;;;29.19;35.13;95684.28;5033075;28;20183;-68
2022/10/29 10:25:55;;;;;;;10.52;5.57;;;;;;;29.26;32.33;95683.88;5033737;28;20237;-77
2022/10/29 10:28:24;;;;;;;8.02;5.03;;;;;;;29.48;30.51;95685.66;5033499;28;20195;-77
2022/10/29 10:31:14;;;;;;;10.82;5.40;;;;;;;29.30;29.77;95671.44;5033584;28;20199;-78
2022/10/29 10:33:52;;;;;;;10.65;5.20;;;;;;;29.28;29.65;95668.28;5031792;28;20199;-77
2022/10/29 10:36:22;;;;;;;10.43;5.65;;;;;;;29.46;30.13;95663.75;5031503;28;20229;-78
2022/10/29 10:38:51;;;;;;;10.00;4.75;;;;;;;29.56;29.20;95664.25;5031357;28;20213;-77
2022/10/29 10:41:26;;;;;;;8.45;4.80;;;;;;;29.40;29.61;95654.28;5033401;28;20743;-77
2022/10/29 10:43:59;;;;;;;9.85;4.78;;;;;;;29.69;29.01;95662.53;5030925;28;20215;-77
2022/10/29 10:46:29;;;;;;;9.23;4.60;;;;;;;29.85;28.83;95657.50;5032784;28;20592;-77
2022/10/29 10:48:59;;;;;;;6.53;4.30;;;;;;;30.02;29.60;95644.09;5032961;28;20199;-76
2022/10/29 10:51:28;;;;;;;7.32;4.10;;;;;;;29.66;28.44;95645.19;5033253;28;20195;-76
2022/10/29 10:53:55;;;;;;;7.75;4.05;;;;;;;29.62;28.86;95644.22;5033264;28;20649;-75
2022/10/29 10:56:23;;;;;;;5.35;3.60;;;;;;;29.79;28.92;95646.13;5032971;28;20195;-76
2022/10/29 10:58:58;;;;;;;6.53;4.22;;;;;;;30.08;28.63;95618.69;5033079;28;20199;-76
2022/10/29 11:01:29;;;;;;;6.72;3.97;;;;;;;30.65;27.96;95635.38;5033243;28;20194;-76
2022/10/29 11:04:05;;;;;;;5.18;3.33;;;;;;;31.06;27.68;95624.78;5032787;28;20199;-76
2022/10/29 11:06:35;;;;;;;7.97;4.15;;;;;;;31.15;26.76;95630.91;5031032;28;20198;-76
2022/10/29 11:09:11;;;;;;;11.82;4.20;;;;;;;31.31;26.59;95623.09;5032128;28;20217;-75
2022/10/29 11:11:44;;;;;;;6.60;3.50;;;;;;;31.26;26.63;95631.31;5033144;28;20194;-75
2022/10/29 11:14:17;;;;;;;4.55;3.20;;;;;;;31.26;26.22;95617.88;5030562;28;20190;-77
2022/10/29 11:16:50;;;;;;;6.10;3.22;;;;;;;31.42;26.38;95622.38;5032180;28;20252;-76
2022/10/29 11:19:24;;;;;;;6.55;3.05;;;;;;;31.56;25.91;95614.09;5032808;28;20194;-76
2022/10/29 11:22:12;;;;;;;7.72;3.20;;;;;;;31.40;25.96;95605.00;5030542;28;20190;-77
2022/10/29 11:24:47;;;;;;;6.50;3.58;;;;;;;31.44;26.12;95605.91;5031300;28;20194;-76
2022/10/29 11:27:28;;;;;;;5.82;3.15;;;;;;;31.36;25.65;95596.00;5030684;28;20202;-76
2022/10/29 11:30:03;;;;;;;5.97;3.10;;;;;;;31.55;25.98;95598.25;5030895;28;20244;-75
2022/10/29 11:32:40;;;;;;;5.78;2.80;;;;;;;31.50;25.78;95591.19;5029880;28;20680;-76
2022/10/29 11:35:11;;;;;;;4.07;3.20;;;;;;;31.23;25.71;95581.69;5032819;28;20190;-76
2022/10/29 11:37:47;;;;;;;7.28;3.20;;;;;;;30.92;25.88;95584.69;5032112;28;20653;-75